| time (UTC) | temp C | wind direction | speed KPH | gust KPH | rain 1hr cm | rain 24hr cm | rain mn cm | humidity % | barometer mb |
| 20260502130741 | 27 | 53 | 3.2 | 4.8 | 0.00 | 0.00 | 0.00 | 20 | 1022.0 |
| 20260502123657 | 28 | 27 | 1.6 | 4.8 | 0.00 | 0.00 | 0.00 | 20 | 1022.5 |
| 20260502123150 | 28 | 14 | 3.2 | 4.8 | 0.00 | 0.00 | 0.00 | 20 | 1022.4 |
| 20260502122641 | 28 | 358 | 3.2 | 6.4 | 0.00 | 0.00 | 0.00 | 21 | 1022.5 |
| 20260502120612 | 27 | 72 | 3.2 | 6.4 | 0.00 | 0.00 | 0.00 | 21 | 1022.8 |
| 20260502120104 | 27 | 84 | 3.2 | 6.4 | 0.00 | 0.00 | 0.00 | 21 | 1022.9 |
| 20260502115049 | 28 | 61 | 3.2 | 6.4 | 0.00 | 0.00 | 0.00 | 22 | 1023.0 |
| 20260502113526 | 27 | 9 | 1.6 | 4.8 | 0.00 | 0.00 | 0.00 | 22 | 1023.2 |
| 20260502113019 | 27 | 2 | 3.2 | 4.8 | 0.00 | 0.00 | 0.00 | 22 | 1023.3 |
| 20260502112512 | 27 | 62 | 1.6 | 4.8 | 0.00 | 0.00 | 0.00 | 22 | 1023.4 |
| 20260502112004 | 27 | 75 | 3.2 | 4.8 | 0.00 | 0.00 | 0.00 | 23 | 1023.5 |
| 20260502111457 | 26 | 16 | 3.2 | 6.4 | 0.00 | 0.00 | 0.00 | 23 | 1023.5 |
| 20260502110949 | 26 | 95 | 4.8 | 9.7 | 0.00 | 0.00 | 0.00 | 22 | 1023.5 |
| 20260502110442 | 26 | 116 | 4.8 | 9.7 | 0.00 | 0.00 | 0.00 | 22 | 1023.6 |
| 20260502105935 | 27 | 92 | 3.2 | 8.0 | 0.00 | 0.00 | 0.00 | 22 | 1023.7 |
| 20260502105427 | 27 | 31 | 3.2 | 4.8 | 0.00 | 0.00 | 0.00 | 23 | 1023.7 |
| 20260502104920 | 27 | 126 | 3.2 | 6.4 | 0.00 | 0.00 | 0.00 | 22 | 1023.8 |
| 20260502104412 | 27 | 219 | 3.2 | 4.8 | 0.00 | 0.00 | 0.00 | 23 | 1023.9 |
| 20260502102850 | 26 | 3 | 1.6 | 4.8 | 0.00 | 0.00 | 0.00 | 23 | 1024.1 |
| 20260502102343 | 26 | 199 | 3.2 | 6.4 | 0.00 | 0.00 | 0.00 | 24 | 1024.2 |
| 20260502101836 | 26 | 109 | 3.2 | 6.4 | 0.00 | 0.00 | 0.00 | 24 | 1024.4 |
| 20260502101329 | 26 | 126 | 3.2 | 6.4 | 0.00 | 0.00 | 0.00 | 24 | 1024.4 |
| 20260502100821 | 26 | 90 | 4.8 | 6.4 | 0.00 | 0.00 | 0.00 | 23 | 1024.5 |
| 20260502091202 | 25 | 105 | 3.2 | 8.0 | 0.00 | 0.00 | 0.00 | 25 | 1025.1 |
| 20260502090655 | 25 | 77 | 3.2 | 4.8 | 0.00 | 0.00 | 0.00 | 26 | 1025.1 |
| 20260502071424 | 19 | 21 | 1.6 | 3.2 | 0.00 | 0.00 | 0.00 | 41 | 1026.0 |
| 20260502070917 | 18 | 42 | 0.0 | 3.2 | 0.00 | 0.00 | 0.00 | 43 | 1026.0 |
| 20260502070410 | 17 | 55 | 1.6 | 3.2 | 0.00 | 0.00 | 0.00 | 42 | 1026.1 |
| 20260502065904 | 17 | 84 | 1.6 | 3.2 | 0.00 | 0.00 | 0.00 | 43 | 1026.1 |
| 20260502065358 | 16 | 48 | 1.6 | 3.2 | 0.00 | 0.00 | 0.00 | 45 | 1026.1 |
| 20260502064345 | 15 | 59 | 1.6 | 3.2 | 0.00 | 0.00 | 0.00 | 47 | 1026.2 |
| 20260502063839 | 15 | 52 | 1.6 | 3.2 | 0.00 | 0.00 | 0.00 | 49 | 1026.2 |
| 20260502063333 | 15 | 43 | 1.6 | 3.2 | 0.00 | 0.00 | 0.00 | 50 | 1026.2 |
| 20260502062827 | 14 | 22 | 1.6 | 3.2 | 0.00 | 0.00 | 0.00 | 52 | 1026.3 |
| 20260502062321 | 13 | 64 | 1.6 | 3.2 | 0.00 | 0.00 | 0.00 | 53 | 1026.3 |
| 20260502061815 | 13 | 88 | 1.6 | 3.2 | 0.00 | 0.00 | 0.00 | 55 | 1026.3 |
| 20260502061309 | 12 | 67 | 1.6 | 3.2 | 0.00 | 0.00 | 0.00 | 56 | 1026.3 |
| 20260502060803 | 11 | 70 | 1.6 | 3.2 | 0.00 | 0.00 | 0.00 | 58 | 1026.3 |
| 20260502060257 | 11 | 78 | 1.6 | 3.2 | 0.00 | 0.00 | 0.00 | 60 | 1026.3 |
| 20260502055751 | 10 | 87 | 0.0 | 3.2 | 0.00 | 0.00 | 0.00 | 62 | 1026.4 |
| 20260502055245 | 8 | 90 | 0.0 | 0.0 | 0.00 | 0.00 | 0.00 | 64 | 1026.4 |
| 20260502054740 | 8 | 90 | 0.0 | 0.0 | 0.00 | 0.00 | 0.00 | 65 | 1026.4 |
| 20260502053729 | 7 | 90 | 0.0 | 0.0 | 0.00 | 0.00 | 0.00 | 67 | 1026.5 |
| 20260502053223 | 7 | 90 | 0.0 | 0.0 | 0.00 | 0.00 | 0.00 | 68 | 1026.5 |
| 20260502052717 | 6 | 90 | 0.0 | 0.0 | 0.00 | 0.00 | 0.00 | 69 | 1026.5 |
| 20260502052212 | 6 | 90 | 0.0 | 0.0 | 0.00 | 0.00 | 0.00 | 71 | 1026.5 |
| 20260502051706 | 5 | 90 | 0.0 | 0.0 | 0.00 | 0.00 | 0.00 | 72 | 1026.5 |
| 20260502051201 | 4 | 90 | 0.0 | 0.0 | 0.00 | 0.00 | 0.00 | 74 | 1026.5 |
| 20260502050655 | 3 | 90 | 0.0 | 0.0 | 0.00 | 0.00 | 0.00 | 74 | 1026.4 |
| 20260502050150 | 2 | 58 | 0.0 | 0.0 | 0.00 | 0.00 | 0.00 | 74 | 1026.4 |
| 20260502045645 | 2 | 305 | 0.0 | 0.0 | 0.00 | 0.00 | 0.00 | 73 | 1026.3 |
| 20260502045139 | 2 | 270 | 0.0 | 0.0 | 0.00 | 0.00 | 0.00 | 71 | 1026.3 |
| 20260502044634 | 2 | 270 | 0.0 | 0.0 | 0.00 | 0.00 | 0.00 | 71 | 1026.2 |
| 20260502044129 | 1 | 270 | 0.0 | 0.0 | 0.00 | 0.00 | 0.00 | 71 | 1026.2 |
| 20260502043118 | 1 | 270 | 0.0 | 0.0 | 0.00 | 0.00 | 0.00 | 71 | 1026.3 |
| 20260502042613 | 1 | 270 | 0.0 | 0.0 | 0.00 | 0.00 | 0.00 | 70 | 1026.3 |
| 20260502042108 | 1 | 270 | 0.0 | 0.0 | 0.00 | 0.00 | 0.00 | 70 | 1026.3 |
| 20260502041602 | 1 | 270 | 0.0 | 0.0 | 0.00 | 0.00 | 0.00 | 70 | 1026.3 |
| 20260502040046 | 1 | 270 | 0.0 | 0.0 | 0.00 | 0.00 | 0.00 | 70 | 1026.3 |
| 20260502035036 | 2 | 270 | 0.0 | 0.0 | 0.00 | 0.00 | 0.00 | 69 | 1026.2 |
| 20260502034531 | 2 | 270 | 0.0 | 0.0 | 0.00 | 0.00 | 0.00 | 69 | 1026.2 |
| 20260502033520 | 2 | 270 | 0.0 | 0.0 | 0.00 | 0.00 | 0.00 | 69 | 1026.2 |
| 20260502033015 | 2 | 270 | 0.0 | 0.0 | 0.00 | 0.00 | 0.00 | 69 | 1026.2 |
| 20260502032509 | 2 | 270 | 0.0 | 0.0 | 0.00 | 0.00 | 0.00 | 69 | 1026.2 |
| 20260502032004 | 2 | 270 | 0.0 | 0.0 | 0.00 | 0.00 | 0.00 | 69 | 1026.3 |
| 20260502031459 | 2 | 270 | 0.0 | 0.0 | 0.00 | 0.00 | 0.00 | 69 | 1026.3 |
| 20260502030448 | 2 | 270 | 0.0 | 0.0 | 0.00 | 0.00 | 0.00 | 68 | 1026.4 |
| 20260502025943 | 2 | 270 | 0.0 | 0.0 | 0.00 | 0.00 | 0.00 | 68 | 1026.4 |
| 20260502025438 | 2 | 270 | 0.0 | 0.0 | 0.00 | 0.00 | 0.00 | 68 | 1026.5 |
| 20260502024932 | 2 | 270 | 0.0 | 0.0 | 0.00 | 0.00 | 0.00 | 68 | 1026.4 |
| 20260502024427 | 2 | 270 | 0.0 | 0.0 | 0.00 | 0.00 | 0.00 | 67 | 1026.4 |
| 20260502023921 | 2 | 296 | 0.0 | 0.0 | 0.00 | 0.00 | 0.00 | 67 | 1026.5 |
| 20260502023416 | 2 | 315 | 0.0 | 0.0 | 0.00 | 0.00 | 0.00 | 67 | 1026.5 |
| 20260502022911 | 2 | 315 | 0.0 | 0.0 | 0.00 | 0.00 | 0.00 | 67 | 1026.5 |
| 20260502022406 | 2 | 315 | 0.0 | 0.0 | 0.00 | 0.00 | 0.00 | 66 | 1026.5 |
| 20260502021900 | 2 | 315 | 0.0 | 0.0 | 0.00 | 0.00 | 0.00 | 66 | 1026.6 |
| 20260502021355 | 3 | 315 | 0.0 | 0.0 | 0.00 | 0.00 | 0.00 | 66 | 1026.5 |
| 20260502020344 | 3 | 315 | 0.0 | 0.0 | 0.00 | 0.00 | 0.00 | 66 | 1026.6 |
| 20260502015839 | 3 | 315 | 0.0 | 0.0 | 0.00 | 0.00 | 0.00 | 66 | 1026.6 |
| 20260502015333 | 3 | 315 | 0.0 | 0.0 | 0.00 | 0.00 | 0.00 | 65 | 1026.6 |
| 20260502014828 | 3 | 315 | 0.0 | 0.0 | 0.00 | 0.00 | 0.00 | 65 | 1026.6 |
| 20260502014322 | 3 | 315 | 0.0 | 0.0 | 0.00 | 0.00 | 0.00 | 65 | 1026.6 |
| 20260502013817 | 3 | 315 | 0.0 | 0.0 | 0.00 | 0.00 | 0.00 | 65 | 1026.6 |
| 20260502013312 | 3 | 315 | 0.0 | 0.0 | 0.00 | 0.00 | 0.00 | 64 | 1026.6 |
| 20260502012806 | 3 | 315 | 0.0 | 0.0 | 0.00 | 0.00 | 0.00 | 64 | 1026.7 |
| 20260502012301 | 3 | 315 | 0.0 | 0.0 | 0.00 | 0.00 | 0.00 | 64 | 1026.6 |
| 20260502011755 | 3 | 315 | 0.0 | 0.0 | 0.00 | 0.00 | 0.00 | 64 | 1026.6 |
| 20260502011250 | 3 | 315 | 0.0 | 0.0 | 0.00 | 0.00 | 0.00 | 64 | 1026.6 |
| 20260502010745 | 4 | 315 | 0.0 | 0.0 | 0.00 | 0.00 | 0.00 | 63 | 1026.6 |
| 20260502005734 | 4 | 315 | 0.0 | 0.0 | 0.00 | 0.00 | 0.00 | 63 | 1026.7 |
| 20260502005229 | 4 | 315 | 0.0 | 0.0 | 0.00 | 0.00 | 0.00 | 63 | 1026.7 |
| 20260502004723 | 4 | 315 | 0.0 | 0.0 | 0.00 | 0.00 | 0.00 | 63 | 1026.8 |
| 20260502004217 | 4 | 315 | 0.0 | 0.0 | 0.00 | 0.00 | 0.00 | 63 | 1026.8 |
| 20260502003712 | 4 | 315 | 0.0 | 0.0 | 0.00 | 0.00 | 0.00 | 63 | 1026.9 |
| 20260502003207 | 4 | 315 | 0.0 | 0.0 | 0.00 | 0.00 | 0.00 | 62 | 1026.8 |
| 20260502002701 | 4 | 315 | 0.0 | 0.0 | 0.00 | 0.00 | 0.00 | 62 | 1026.9 |
| 20260502001145 | 5 | 315 | 0.0 | 0.0 | 0.00 | 0.00 | 0.00 | 62 | 1026.9 |
| 20260502000639 | 5 | 315 | 0.0 | 0.0 | 0.00 | 0.00 | 0.00 | 62 | 1026.9 |
| 20260502000134 | 5 | 307 | 0.0 | 0.0 | 0.00 | 0.00 | 0.00 | 61 | 1027.0 |
| 20260501235628 | 5 | 310 | 0.0 | 0.0 | 0.00 | 0.00 | 0.00 | 61 | 1027.1 |
| 20260501235123 | 5 | 225 | 0.0 | 0.0 | 0.00 | 0.00 | 0.00 | 60 | 1027.1 |
| 20260501234617 | 5 | 225 | 0.0 | 0.0 | 0.00 | 0.00 | 0.00 | 60 | 1027.1 |
| 20260501234112 | 5 | 225 | 0.0 | 0.0 | 0.00 | 0.00 | 0.00 | 60 | 1027.1 |
| 20260501233606 | 5 | 225 | 0.0 | 0.0 | 0.00 | 0.00 | 0.00 | 60 | 1027.1 |
| 20260501233101 | 6 | 225 | 0.0 | 0.0 | 0.00 | 0.00 | 0.00 | 59 | 1027.1 |
| 20260501232050 | 6 | 225 | 0.0 | 0.0 | 0.00 | 0.00 | 0.00 | 59 | 1027.1 |
| 20260501231544 | 6 | 225 | 0.0 | 0.0 | 0.00 | 0.00 | 0.00 | 58 | 1027.2 |
| 20260501231038 | 6 | 225 | 0.0 | 0.0 | 0.00 | 0.00 | 0.00 | 59 | 1027.2 |
| 20260501230533 | 6 | 225 | 0.0 | 0.0 | 0.00 | 0.00 | 0.00 | 58 | 1027.2 |
| 20260501230027 | 6 | 232 | 0.0 | 0.0 | 0.00 | 0.00 | 0.00 | 58 | 1027.2 |
| 20260501225522 | 6 | 308 | 0.0 | 0.0 | 0.00 | 0.00 | 0.00 | 58 | 1027.2 |
| 20260501225016 | 6 | 315 | 0.0 | 0.0 | 0.00 | 0.00 | 0.00 | 57 | 1027.2 |
| 20260501224511 | 7 | 315 | 0.0 | 0.0 | 0.00 | 0.00 | 0.00 | 56 | 1027.2 |
| 20260501224005 | 7 | 315 | 0.0 | 0.0 | 0.00 | 0.00 | 0.00 | 56 | 1027.2 |
| 20260501223459 | 7 | 315 | 0.0 | 0.0 | 0.00 | 0.00 | 0.00 | 55 | 1027.2 |
| 20260501222954 | 7 | 315 | 0.0 | 0.0 | 0.00 | 0.00 | 0.00 | 55 | 1027.2 |
| 20260501222448 | 7 | 302 | 0.0 | 0.0 | 0.00 | 0.00 | 0.00 | 55 | 1027.2 |
| 20260501221942 | 7 | 305 | 0.0 | 0.0 | 0.00 | 0.00 | 0.00 | 55 | 1027.2 |
| 20260501221437 | 7 | 315 | 0.0 | 0.0 | 0.00 | 0.00 | 0.00 | 54 | 1027.3 |
| 20260501220931 | 7 | 315 | 0.0 | 0.0 | 0.00 | 0.00 | 0.00 | 54 | 1027.3 |
| 20260501220426 | 8 | 315 | 0.0 | 0.0 | 0.00 | 0.00 | 0.00 | 54 | 1027.4 |
| 20260501215920 | 8 | 315 | 0.0 | 0.0 | 0.00 | 0.00 | 0.00 | 53 | 1027.3 |
| 20260501215414 | 8 | 315 | 0.0 | 0.0 | 0.00 | 0.00 | 0.00 | 53 | 1027.3 |
| 20260501214908 | 8 | 315 | 0.0 | 0.0 | 0.00 | 0.00 | 0.00 | 52 | 1027.3 |
| 20260501214403 | 8 | 315 | 0.0 | 0.0 | 0.00 | 0.00 | 0.00 | 52 | 1027.3 |
| 20260501213351 | 8 | 315 | 0.0 | 0.0 | 0.00 | 0.00 | 0.00 | 51 | 1027.3 |
| 20260501212845 | 8 | 315 | 0.0 | 0.0 | 0.00 | 0.00 | 0.00 | 51 | 1027.2 |
| 20260501212340 | 9 | 315 | 0.0 | 0.0 | 0.00 | 0.00 | 0.00 | 50 | 1027.2 |
| 20260501211834 | 9 | 315 | 0.0 | 0.0 | 0.00 | 0.00 | 0.00 | 50 | 1027.2 |
| 20260501211328 | 9 | 315 | 0.0 | 0.0 | 0.00 | 0.00 | 0.00 | 50 | 1027.3 |
| 20260501210822 | 10 | 315 | 0.0 | 0.0 | 0.00 | 0.00 | 0.00 | 49 | 1027.3 |
| 20260501210317 | 10 | 315 | 0.0 | 0.0 | 0.00 | 0.00 | 0.00 | 49 | 1027.3 |
| 20260501205811 | 10 | 315 | 0.0 | 0.0 | 0.00 | 0.00 | 0.00 | 49 | 1027.3 |
| 20260501204759 | 10 | 315 | 0.0 | 0.0 | 0.00 | 0.00 | 0.00 | 48 | 1027.2 |
| 20260501203748 | 11 | 315 | 0.0 | 0.0 | 0.00 | 0.00 | 0.00 | 48 | 1027.2 |
| 20260501203242 | 11 | 315 | 0.0 | 0.0 | 0.00 | 0.00 | 0.00 | 47 | 1027.2 |
| 20260501202736 | 11 | 315 | 0.0 | 0.0 | 0.00 | 0.00 | 0.00 | 47 | 1027.2 |
| 20260501202230 | 11 | 315 | 0.0 | 0.0 | 0.00 | 0.00 | 0.00 | 46 | 1027.2 |
| 20260501201724 | 11 | 315 | 0.0 | 0.0 | 0.00 | 0.00 | 0.00 | 46 | 1027.2 |
| 20260501201218 | 11 | 315 | 0.0 | 0.0 | 0.00 | 0.00 | 0.00 | 45 | 1027.2 |
| 20260501200712 | 12 | 315 | 0.0 | 0.0 | 0.00 | 0.00 | 0.00 | 45 | 1027.2 |
| 20260501200206 | 12 | 315 | 0.0 | 0.0 | 0.00 | 0.00 | 0.00 | 44 | 1027.1 |
| 20260501195700 | 12 | 315 | 0.0 | 0.0 | 0.00 | 0.00 | 0.00 | 44 | 1027.2 |
| 20260501195154 | 12 | 315 | 0.0 | 0.0 | 0.00 | 0.00 | 0.00 | 43 | 1027.1 |
| 20260501194648 | 12 | 315 | 0.0 | 0.0 | 0.00 | 0.00 | 0.00 | 43 | 1027.1 |
| 20260501194142 | 13 | 315 | 0.0 | 0.0 | 0.00 | 0.00 | 0.00 | 42 | 1027.1 |
| 20260501193636 | 13 | 315 | 0.0 | 0.0 | 0.00 | 0.00 | 0.00 | 42 | 1027.1 |
| 20260501193130 | 13 | 315 | 0.0 | 0.0 | 0.00 | 0.00 | 0.00 | 42 | 1027.1 |
| 20260501192624 | 13 | 315 | 0.0 | 0.0 | 0.00 | 0.00 | 0.00 | 41 | 1027.1 |
| 20260501192118 | 14 | 315 | 0.0 | 0.0 | 0.00 | 0.00 | 0.00 | 41 | 1027.0 |
| 20260501191612 | 14 | 315 | 0.0 | 0.0 | 0.00 | 0.00 | 0.00 | 40 | 1027.1 |
| 20260501191106 | 15 | 315 | 0.0 | 0.0 | 0.00 | 0.00 | 0.00 | 40 | 1027.0 |
| 20260501190559 | 15 | 315 | 0.0 | 0.0 | 0.00 | 0.00 | 0.00 | 40 | 1027.0 |
| 20260501190053 | 15 | 315 | 0.0 | 0.0 | 0.00 | 0.00 | 0.00 | 39 | 1027.0 |
| 20260501185547 | 15 | 315 | 0.0 | 0.0 | 0.00 | 0.00 | 0.00 | 39 | 1027.0 |
| 20260501185041 | 16 | 315 | 0.0 | 0.0 | 0.00 | 0.00 | 0.00 | 38 | 1026.9 |
| 20260501184534 | 16 | 315 | 0.0 | 0.0 | 0.00 | 0.00 | 0.00 | 38 | 1026.9 |
| 20260501184028 | 16 | 315 | 0.0 | 0.0 | 0.00 | 0.00 | 0.00 | 37 | 1026.8 |
| 20260501183522 | 17 | 315 | 0.0 | 0.0 | 0.00 | 0.00 | 0.00 | 37 | 1026.8 |
| 20260501182509 | 17 | 270 | 0.0 | 0.0 | 0.00 | 0.00 | 0.00 | 36 | 1026.7 |
| 20260501182002 | 17 | 270 | 0.0 | 0.0 | 0.00 | 0.00 | 0.00 | 35 | 1026.7 |
| 20260501181456 | 18 | 311 | 0.0 | 0.0 | 0.00 | 0.00 | 0.00 | 35 | 1026.7 |
| 20260501180950 | 18 | 315 | 0.0 | 0.0 | 0.00 | 0.00 | 0.00 | 35 | 1026.7 |
| 20260501180443 | 18 | 315 | 0.0 | 0.0 | 0.00 | 0.00 | 0.00 | 35 | 1026.6 |
| 20260501175936 | 18 | 315 | 0.0 | 0.0 | 0.00 | 0.00 | 0.00 | 34 | 1026.5 |
| 20260501175430 | 19 | 315 | 0.0 | 0.0 | 0.00 | 0.00 | 0.00 | 34 | 1026.6 |
| 20260501174923 | 19 | 315 | 0.0 | 0.0 | 0.00 | 0.00 | 0.00 | 34 | 1026.5 |
| 20260501174417 | 19 | 315 | 0.0 | 0.0 | 0.00 | 0.00 | 0.00 | 33 | 1026.6 |
| 20260501173404 | 20 | 315 | 0.0 | 0.0 | 0.00 | 0.00 | 0.00 | 32 | 1026.5 |
| 20260501172857 | 20 | 315 | 0.0 | 0.0 | 0.00 | 0.00 | 0.00 | 32 | 1026.5 |
| 20260501171844 | 20 | 351 | 1.6 | 3.2 | 0.00 | 0.00 | 0.00 | 31 | 1026.5 |
| 20260501171337 | 21 | 348 | 1.6 | 3.2 | 0.00 | 0.00 | 0.00 | 31 | 1026.5 |
| 20260501170830 | 21 | 346 | 1.6 | 3.2 | 0.00 | 0.00 | 0.00 | 30 | 1026.5 |
| 20260501165817 | 21 | 351 | 0.0 | 1.6 | 0.00 | 0.00 | 0.00 | 30 | 1026.6 |
| 20260501165310 | 21 | 0 | 0.0 | 1.6 | 0.00 | 0.00 | 0.00 | 30 | 1026.6 |
| 20260501164803 | 21 | 356 | 0.0 | 3.2 | 0.00 | 0.00 | 0.00 | 29 | 1026.7 |
| 20260501164256 | 21 | 334 | 1.6 | 3.2 | 0.00 | 0.00 | 0.00 | 29 | 1026.7 |
| 20260501163749 | 21 | 355 | 1.6 | 4.8 | 0.00 | 0.00 | 0.00 | 29 | 1026.7 |
| 20260501163243 | 21 | 3 | 1.6 | 3.2 | 0.00 | 0.00 | 0.00 | 29 | 1026.7 |
| 20260501162229 | 21 | 39 | 0.0 | 1.6 | 0.00 | 0.00 | 0.00 | 29 | 1026.8 |
| 20260501160709 | 22 | 14 | 1.6 | 4.8 | 0.00 | 0.00 | 0.00 | 28 | 1026.9 |
| 20260501155655 | 22 | 17 | 1.6 | 3.2 | 0.00 | 0.00 | 0.00 | 28 | 1026.9 |
| 20260501155148 | 22 | 330 | 1.6 | 3.2 | 0.00 | 0.00 | 0.00 | 27 | 1027.0 |
| 20260501154641 | 22 | 318 | 1.6 | 4.8 | 0.00 | 0.00 | 0.00 | 28 | 1027.0 |
| 20260501154134 | 22 | 350 | 1.6 | 4.8 | 0.00 | 0.00 | 0.00 | 27 | 1027.0 |
| 20260501153627 | 22 | 351 | 1.6 | 4.8 | 0.00 | 0.00 | 0.00 | 27 | 1027.1 |
| 20260501153120 | 22 | 8 | 1.6 | 4.8 | 0.00 | 0.00 | 0.00 | 27 | 1027.1 |
| 20260501152613 | 22 | 79 | 3.2 | 4.8 | 0.00 | 0.00 | 0.00 | 27 | 1027.2 |
| 20260501152107 | 23 | 3 | 3.2 | 4.8 | 0.00 | 0.00 | 0.00 | 27 | 1027.3 |
| 20260501151600 | 22 | 23 | 1.6 | 4.8 | 0.00 | 0.00 | 0.00 | 27 | 1027.3 |
| 20260501151053 | 23 | 28 | 1.6 | 3.2 | 0.00 | 0.00 | 0.00 | 26 | 1027.3 |
| 20260501150546 | 23 | 15 | 1.6 | 4.8 | 0.00 | 0.00 | 0.00 | 27 | 1027.3 |
| 20260501150039 | 23 | 9 | 3.2 | 4.8 | 0.00 | 0.00 | 0.00 | 26 | 1027.4 |
| 20260501145025 | 22 | 55 | 1.6 | 4.8 | 0.00 | 0.00 | 0.00 | 26 | 1027.5 |
| 20260501144518 | 23 | 51 | 3.2 | 6.4 | 0.00 | 0.00 | 0.00 | 26 | 1027.5 |
| 20260501144011 | 23 | 59 | 3.2 | 6.4 | 0.00 | 0.00 | 0.00 | 26 | 1027.5 |
| 20260501143504 | 23 | 101 | 3.2 | 6.4 | 0.00 | 0.00 | 0.00 | 25 | 1027.5 |
| 20260501142957 | 23 | 16 | 1.6 | 3.2 | 0.00 | 0.00 | 0.00 | 26 | 1027.6 |
| 20260501142450 | 23 | 355 | 1.6 | 4.8 | 0.00 | 0.00 | 0.00 | 26 | 1027.6 |
| 20260501141943 | 23 | 65 | 3.2 | 4.8 | 0.00 | 0.00 | 0.00 | 26 | 1027.7 |
| 20260501141436 | 23 | 51 | 3.2 | 6.4 | 0.00 | 0.00 | 0.00 | 25 | 1027.6 |
| 20260501140929 | 23 | 332 | 1.6 | 6.4 | 0.00 | 0.00 | 0.00 | 25 | 1027.7 |
| 20260501140422 | 23 | 47 | 3.2 | 4.8 | 0.00 | 0.00 | 0.00 | 26 | 1027.8 |
| 20260501135915 | 23 | 43 | 3.2 | 6.4 | 0.00 | 0.00 | 0.00 | 25 | 1027.8 |
| 20260501135408 | 23 | 24 | 3.2 | 4.8 | 0.00 | 0.00 | 0.00 | 25 | 1027.9 |
| 20260501134902 | 23 | 77 | 3.2 | 6.4 | 0.00 | 0.00 | 0.00 | 25 | 1027.9 |
| 20260501134355 | 23 | 55 | 3.2 | 6.4 | 0.00 | 0.00 | 0.00 | 26 | 1027.9 |
| 20260501133341 | 23 | 14 | 1.6 | 4.8 | 0.00 | 0.00 | 0.00 | 26 | 1028.0 |
| 20260501132834 | 23 | 68 | 3.2 | 4.8 | 0.00 | 0.00 | 0.00 | 25 | 1027.9 |